KMDH Weather | Aviation | SIU

Home
Southern Illinois University

CONTACT

SIU.EDU

Aviation - Weather

College of Applied Sciences and Arts

KMDH Weather

NOTICE: Although all weather products are taken from the National Weather Service, this data should be used only as a supplement to a formal weather briefing.

Last Updated: Sunday, April 30th, 2017, 9:17 pm
Information on this page is updated every 5 minutes.


METARS

KMDH 010152Z 20009KT 10SM -RA FEW021 BKN055 OVC070 17/17 A2959 RMK AO2 PK WND

KMDH 010052Z 19015G25KT 10SM FEW021 BKN050 OVC100 21/18 A2958 RMK AO2 PK WND

KMDH 302352Z 18017G30KT 10SM SCT018 BKN025 OVC037 21/19 A2958 RMK AO2 PK WND

KMWA 010155Z AUTO 20013G20KT 10SM SCT018 SCT023 BKN055 20/20 A2960 RMK AO2

KMWA 010135Z AUTO 18016G22KT 10SM SCT021 SCT050 OVC055 21/20 A2959 RMK AO2

KMWA 010115Z AUTO 20014G17KT 10SM BKN017 BKN026 OVC065 21/20 A2960 RMK AO2 LTG

KMWA 010055Z AUTO 18015G21KT 10SM BKN014 BKN018 OVC038 21/20 A2960 RMK AO2

KMWA 010035Z AUTO 19019G24KT 10SM BKN014 BKN041 OVC080 21/20 A2960 RMK AO2

KMWA 010015Z AUTO 18018G28KT 7SM RA BKN014 OVC046 21/21 A2959 RMK AO2

KCGI 010153Z AUTO 21015G24KT 10SM SCT036 SCT050 BKN060 18/13 A2961 RMK AO2

KCGI 010109Z AUTO 22016G21KT 10SM SCT027 SCT070 BKN120 18/14 A2960 RMK AO2

KCGI 010053Z AUTO 23015KT 10SM -RA FEW018 BKN029 OVC050 18/15 A2960 RMK AO2 PK

KCGI 010042Z AUTO 22016G28KT 3SM -RA BR FEW015 BKN025 OVC110 18/16 A2961 RMK AO2

KCGI 010025Z AUTO 18018G26KT 10SM SCT017 SCT023 BKN055 21/18 A2959 RMK AO2 PK

KCGI 302353Z AUTO 18018G25KT 10SM BKN020 BKN028 OVC100 21/18 A2959 RMK AO2 PK

KSAR 010158Z AUTO 21012G18KT 10SM SCT038 SCT120 18/14 A2958 RMK AO2 P0004

KSAR 010138Z AUTO 20011G15KT 10SM SCT014 SCT026 BKN120 18/16 A2957 RMK AO2 P0004

KSAR 010057Z AUTO 16014G21KT 10SM BKN020 OVC024 19/17 A2955 RMK AO2

KSAR 010038Z AUTO 17012G23KT 10SM OVC020 19/17 A2956 RMK AO2

KSAR 010017Z AUTO 17012G18KT 10SM OVC016 19/18 A2956 RMK AO2 LTG DSNT N

KSAR 302337Z AUTO 17015G22KT 10SM SCT008 OVC014 20/18 A2956 RMK AO2

KFAM 010156Z AUTO 18013KT 10SM CLR 16/08 A2958 RMK AO2 PK WND 18026/0109 SLP011

KFAM 010056Z AUTO 19015G24KT 10SM CLR 18/10 A2956 RMK AO2 SLP006 T01780100

KFAM 302356Z AUTO 22021G31KT 10SM FEW021 BKN039 OVC050 19/15 A2956 RMK AO2 PK

KFAM 302345Z AUTO 20019G27KT 10SM SCT021 BKN030 OVC055 19/16 A2955 RMK AO2 PK

KMVN 010207Z AUTO 19014G21KT 10SM FEW016 BKN065 OVC110 20/18 A2957 RMK AO2

KMVN 010156Z AUTO 19013KT 10SM BKN018 BKN065 OVC110 20/18 A2957 RMK AO2 RAE18

KMVN 010124Z AUTO 20013KT 10SM SCT018 BKN023 OVC080 20/18 A2958 RMK AO2 LTG DSNT

KMVN 010117Z AUTO 20016KT 10SM -RA FEW015 SCT020 OVC080 20/18 A2958 RMK AO2 LTG

KMVN 010056Z AUTO 20018G23KT 10SM -RA BKN015 OVC085 21/19 A2958 RMK AO2 LTG DSNT

KMVN 302356Z AUTO 17011G19KT 10SM -RA BKN022 BKN029 OVC044 21/19 A2958 RMK AO2

KHSB 010155Z AUTO 19016G21KT 10SM OVC017 20/19 A2961 RMK AO2 P0006 T02040191

KCIR 010155Z AUTO 19009G15KT 10SM -RA SCT027 BKN032 OVC049 17/16 A2964 RMK AO2

KPAH 010153Z 20009G23KT 10SM FEW021 SCT026 BKN050 21/17 A2963 RMK AO2 RAE12

KPOF 010153Z AUTO 20013G23KT 10SM CLR 16/11 A2964 RMK AO2 SLP035 T01610111 TSNO

KFAM 010156Z AUTO 18013KT 10SM CLR 16/08 A2958 RMK AO2 PK WND 18026/0109 SLP011

KBLV 010158Z AUTO 15005KT 10SM FEW035 OVC130 19/19 A2953 RMK AO2 PK WND 22027/10

KSUS 010154Z 19010KT 10SM CLR 19/10 RMK AO2 SLPNO T01890100 $

KCPS 010153Z 19007G15KT 10SM CLR 19/12 A2953 RMK AO2 SLP996 T01940117

KSTL 010151Z 19015G28KT 10SM FEW100 21/09 A2952 RMK AO2 PK WND 18029/0129 SLP988

KTBN 010158Z AUTO 22007KT 10SM BKN065 13/03 A2955 RMK AO2 SLP005 T01330030

KVIH 010153Z AUTO 23015KT 10SM FEW050 BKN060 OVC075 14/07 A2954 RMK AO2 PK WND

KENL 010155Z AUTO 18013G21KT 10SM SCT055 BKN110 21/18 A2956 RMK AO2 T02060182

KMTO 010211Z AUTO 18014G28KT 3SM +TSRA BR SCT017 BKN038 OVC055 20/19 A2955 RMK

KFWC 010155Z AUTO 19012G18KT 7SM -RA SCT010 BKN024 OVC050 20/19 A2959 RMK AO1

KCUL 010155Z AUTO 17014G23KT 10SM BKN024 OVC030 21/19 A2960 RMK AO2 T02110185

KEVV 010154Z 17015G20KT 10SM FEW043 SCT120 21/17 A2965 RMK AO2 SLP036 T02110167

KOWB 010156Z 16015G22KT 10SM SCT120 21/17 A2969 RMK AO2 SLP062 T02110167

KCEY 010155Z AUTO 20014G19KT 10SM BKN024 BKN032 OVC043 20/19 A2967 RMK AO1

KHOP 010158Z AUTO 16012G19KT 10SM FEW028 SCT039 OVC070 21/17 A2970 RMK AO2

KMKL 010153Z AUTO 19008G15KT 10SM BKN022 BKN031 OVC043 21/18 A2971 RMK AO2

KDYR 010156Z AUTO 23012G19KT 10SM SCT029 SCT034 OVC060 19/15 A2970 RMK AO2

KARG 010215Z AUTO 22016KT 10SM CLR 16/06 A2969 RMK AO1

KJBR 010153Z AUTO 25014G26KT 10SM BKN044 16/08 A2971 RMK AO2 PK WND 22028/0137

KUNO 010153Z AUTO 22015G22KT 10SM CLR 13/03 A2963 RMK AO2 PK WND 22028/0057

KALN 010147Z 17010KT 10SM BKN050 BKN110 18/16 A2953

KALN 010147Z 17010KT 10SM BKN050 BKN110 18/16 A2953

KCOU 010154Z 24007KT 10SM OVC055 13/07 A2954 RMK AO2 SLP999 T01280067

KSPI 010152Z 17014KT 10SM BKN110 19/18 A2949 RMK AO2 LTG DSNT NE AND E RAB04E30

KAJG 010155Z AUTO 17020G28KT 10SM BKN029 OVC040 22/17 A2961 RMK AO2 LTG DSNT NW

KM30 010155Z AUTO 18015G21KT 10SM SCT019 BKN048 OVC060 21/18 A2964 RMK AO2

KDEC 010201Z 17016G21KT 10SM SCT020 BKN028 OVC050 21/19 A2953 RMK AO2 LTG DSNT N

KIJX 010155Z AUTO 16012G19KT 10SM -RA OVC110 19/17 A2947 RMK AO2 LTG DSNT NW


TAFS

KEVV 302320Z 0100/0124 18015G25KT P6SM VCSH SCT025 BKN050

        TEMPO 0101/0105 5SM -SHRA BR BKN025

        FM010700 22008G18KT P6SM SCT025 BKN100

        FM011400 23018G28KT P6SM SCT025 BKN035

KCGI 302320Z 0100/0124 19020G30KT P6SM VCSH BKN020

        FM010300 21014G24KT P6SM FEW100 SCT250

        FM011400 24018G28KT P6SM SCT025 BKN050

KPAH 010209Z 0102/0124 19015G25KT P6SM VCSH SCT025 BKN035

        TEMPO 0102/0103 22022G37KT 5SM -SHRA BR BKN025

        FM010600 23012G22KT P6SM FEW100 SCT250

        FM011400 24015G25KT P6SM SCT025 BKN050

KSPI 302340Z 0100/0124 16015G22KT P6SM VCTS BKN015CB OVC020

        TEMPO 0100/0103 3SM TSRA BR SCT010CB OVC020

        FM010300 17017G24KT P6SM BKN045

        FM011300 22018G30KT P6SM BKN025

KSTL 302327Z 0100/0206 18016G24KT P6SM VCSH BKN020

        FM010100 21014G21KT P6SM BKN040

        FM011400 22016G26KT P6SM OVC025

        FM020000 26011G23KT P6SM BKN035

KDEC 302340Z 0100/0124 14015G22KT P6SM VCTS SCT025CB OVC040

        TEMPO 0100/0103 3SM TSRA BR BKN015CB

        FM010300 17017G24KT P6SM BKN045

        FM011300 22018G30KT P6SM BKN025

KOWB 302320Z 0100/0124 18015G25KT P6SM VCSH SCT025 BKN050

        TEMPO 0101/0105 5SM -SHRA BR BKN025

        FM010800 22009G19KT P6SM SCT025 BKN100

        FM011400 23017G27KT P6SM SCT025 BKN040

KSUS 302327Z 0100/0124 18014G21KT P6SM BKN040

        FM011400 22016G26KT P6SM OVC025

TAF KBLV 010008Z 0100/0206 14012G18KT 9999 SCT012 BKN045 QNH2947INS

        BECMG 0102/0103 19009KT 9999 SCT045 WS020/22038KT QNH2949INS

        BECMG 0108/0109 22009KT 9999 BKN025 WS020/22038KT QNH2951INS

        BECMG 0111/0112 22015G25KT 9999 BKN025 620303 QNH2951INS

        BECMG 0115/0116 24025G35KT 9999 BKN025 OVC045 620304 510003 QNH2956INS

        BECMG 0200/0201 25012KT 9999 BKN025 OVC045 620304 QNH2969INS TX20/0100Z TN08/0112Z


Winds Aloft

VALID 010600Z FOR USE 0200-0900Z. TEMPS NEG ABV 24000

FT 3000 6000 9000 12000 18000 24000 30000 34000 39000
CGI22402247+021976+022078-032180-152186-26701737702040711445
EVV23382241+082065+042084-012093-127003-24691136691543701351
SPI23282125+021965-011875-051980-161979-27690238691541700846
STL22282229-012051-061873-071989-162093-27209841700139209743



Pilot Reports

DEC UA /OV AXC/TM 2030/FL430/TP GLF4/TB NEG/RM ZKC/FD1
MWA UA /OV MWA/TM 2034/FL280/TP BE20/TB NEG/RM ZKC/FD1
DEC UA /OV DEC/TM 2038/FL065/TP C56X/SK UNKN010/BKN040/RM DURC HIER LYR VSB
MWA UA /OV MWA/TM 2059/FLUNKN/TP C402/SK OVC017-TOPUNKN/RM DURC
LWV UA /OV LWV/TM 2100/FL100/TP BE99/SK UNKN OVC UNKN/WX IMC LT - MOD RA/TA 05/TB LT CHOP
DEC UA /OV 10NM NW DEC/TM 2112/FL20/TP C208/SK SCT20 BKN30 TOPS 38 LAYR ABV/RM LANDING DEC
SPI UA /OV SPI180025/TM 2113/FL340/TP A321/TB LGT-MOD CHOP/RM ZKCFDC/OH
KSPI UA /OV SPI/TM 2135/FLDURGD/TP CRJ2/SK B 022 T 035
1H2 UA /OV BIB/TM 2135/FL190/TP LJ45/TB LGT-MOD CHOP 190-210/RM ZKCFDC/OH
LIT UA /OV ARG/TM 2138/FL380/TP B737/TB MOD/RM ZME
LEX UA /OV OWB/TM 2203/FL140/TP BE40/TB LGT
CPS UA /OV DURD/TM 2214/FL018/TP BE9L/SK BKN018/WV LLWS +/- 5KTS AOB018
MWA UA /OV MWA290032/TM 2238/FL120/TP C414/SK TOPS120-115/RM ZKC/FD1
STL UA /OV STL/TM 2257/FL380/TP B737/TB LGT CAT/RM ZKC/FD1
STL UA /OV TOY090015/TM 2259/FL340/TP B737/TB LGT CAT/RM ZKCFDC/OH
KALN UA /OV 2NW LALN/TM 2303/FL020/TP PA46/RM B020
IND UA /OV VHP270030/TM 2344/FL250/TP CRJ/TB LGT-MOD CHOP
KALN UA /OV KALN315002/TM 2352/FL017/TP C25A/RM B017 OVC
DEC UA /OV AXC/TM 0001/FL410/TP C525/TB LGT-MOD CHOP/RM ZKC/FD1
LIT UA /OV ARG/TM 0002/FL300/TP E75L/TB MOD/RM ZME
MWA UA /OV MWA/TM 0113/FL370/TP CRJ9/TB LGT CHOP/RM ZKC/FD1
FAM UA /OV FAM035007/TM 0118/FL360/TP B738/TB OCNL LGT CHOP/RM ZKC/FD1
FAM UA /OV FAM270020/TM 0119/FL450/TP E55P/TB LGT CHOP/RM ZKC/FD1



Area Forecast

000

FAUS43 KKCI 010145

FA3W

CHIC FA 010145

SYNOPSIS AND VFR CLDS/WX

SYNOPSIS VALID UNTIL 012000

CLDS/WX VALID UNTIL 011400...OTLK VALID 011400-012000

ND SD NE KS MN IA MO WI LM LS MI LH IL IN KY

.

SEE AIRMET SIERRA FOR IFR CONDS AND MTN OBSCN.

TS IMPLY SEV OR GTR TURB SEV ICE LLWS AND IFR CONDS.

NON MSL HGTS DENOTED BY AGL OR CIG.

.

SYNOPSIS...LOW OVR SERN IA WITH WRMFNT THRU SERN MI CDFNT THRU

WRN KY AND OCLD FNT THRU NERN KS BY 20Z OCLD OVR ERN UPR MI-NWRN

WI.

.

ND

W...SCT100. 09Z BKN100 TOP 160. 12Z BKN080 TOP FL220. WDLY SCT

-SHRA. OTLK...VFR SHRA 18Z TSRA.

CNTRL-E...SCT-BKN CI. OTLK...VFR.

.

SD

W...SCT CI. 12Z BKN080 TOP FL200. WDLY SCT -SHRA. OTLK...VFR WND.

CNTRL...BKN CI. 09Z SCT CI. OTLK...VFR.

E...

N QTR..SCT080 BKN150 LYRD FL250. 12Z BKN040. OTLK...XTRM E MVFR

CIG 18Z VFR ELSW VFR.

RMNDR..OVC020 LYRD FL250. VIS 3-5SM -RASN/SN. OTLK...IFR CIG SN

RASN 17Z MVFR CIG RA.

.

NE

PNHDL-W CNTRL...BKN-SCT CI. 09Z SCT150. OTLK...VFR 16Z PNHDL MVFR

CIG SHRA WND.

E CNTRL-E...OVC020-030 LYRD FL250. VIS 3SM -RA/BR. W -SNRA.

12Z TOP FL180. E VIS 3SM -RASN. OTLK...CNTRL MVFR CIG 16Z VFR E

IFR CIG 17Z MVFR CIG WND.

.

KS

W..OVC040-050 TOP FL220. 07Z SCT070. 12Z OCNL VIS 3SM BR.

OTLK...VFR.

CNTRL-E...

N HLF..OVC020-025 TOP FL220. WDLY SCT -SHRA. 12Z BKN-OVC025-035

TOP FL180. OTLK...CNTRL VFR E MVFR CIG 19Z VFR.

S HLF..OVC030 TOP FL200. TIL 05Z WDLY SCT -SHRA. 12Z CNTRL

SCT050. OTLK...E MVFR CIG 17Z VFR ELSW VFR.

.

MN

NW...SCT100 BKN CI. 11Z BKN120 TOP FL250. OTLK...VFR 15Z MVFR CIG

RASN.

NERN...BKN100 LYRD FL250. 07Z OVC080. WDLY SCT -SHRA.

12Z OVC045. VIS 3SM -RASN. OTLK...MVFR CIG RASN 15Z IFR CIG SN.

CNTRL...BKN050 LYRD FL250. -RA. 06Z OVC020-025. VIS 3SM -RASN.

12Z VIS 3SM -SN. OTLK...IFR CIG SN RASN.

S...OVC015-020 LYRD FL250. VIS 3SM SCT -SHRA. 06Z W VIS 3SM

-RASN. OTLK...IFR CIG W RASN E SHRA.

.

IA

OVC015-020 LYRD FL250. VIS 3SM SCT -SHRA. TIL 06Z E PTN ISOL

-TSRA. CB TOP FL400. OTLK...IFR CIG SHRA 17Z SW QTR MVFR CIG

19Z NW-SE MVFR CIG.

.

MO

W HLF...BKN045 TOP 120. WDLY SCT -SHRA. 05Z NW OVC020 TOP FL180.

VIS 3SM SCT -SHRA. 08Z SW BKN030 TOP 140. ISOL -SHRA. OTLK...NW

IFR CIG 16Z MVFR CIG SW MVFR CIG 19Z VFR.

NERN...BKN050 TOP 120. 07Z OVC030 TOP FL220. WDLY SCT -SHRA.

12Z OVC015. ISOL -SHRA. OTLK...IFR CIG SHRA 19Z MVFR CIG.

SE...SCT-BKN050 TOP 100. OTLK...VFR 15Z MVFR CIG 19Z VFR.

.

WI

N-CNTRL...OVC015-025 LYRD FL250. VIS 3SM SCT -SHRA. ISOL -TSRA.

CB TOP FL380. 12Z TOP 160. OTLK...IFR CIG SHRA.

S...OVC015-020 TOP FL250. VIS 3SM SCT -SHRA. ISOL -TSRA. CB TOP

FL400. 09Z TOP 140. WDLY SCT -SHRA. OTLK...E PTN MVFR CIG SHRA W

PTN IFR CIG SHRA 18Z TSRA.

.

LS UPR MI

N PTN...OVC060 LYRD FL250. 08Z OVC025. SCT -SHRA. WND NE 20G30KT.

OTLK...IFR CIG SHRA WND TIL 16Z E PTN TSRA.

S PTN..OVC030 LYRD FL250. SCT -SHRA. 10Z OVC015-020. VIS 3SM SCT

-SHRA. 12Z E PTN ISOL -TSRA. CB TOP FL380. OTLK...IFR CIG SHRA.

.

LM LWR MI LH

N HLF...OVC015-025 LYRD FL250. WDLY SCT -SHRA. 09Z OCNL VIS 3SM

SCT -SHRA/BR. ISOL -TSRA. CB TOP FL420. OTLK...IFR CIG SHRA

18Z MVFR CIG SHRA.

S HLF...OVC015 LYRD FL250. VIS 3SM SCT -SHRA. WDLY SCT -TSRA. CB

TOP FL390. OTLK...MVFR CIG SHRA 19Z VFR SHRA.

.

IL

N-CNTRL..OVC015 LYRD FL250. OCNL VIS 3SM SCT -SHRA. TIL 06Z WDLY

SCT -TSRA. CB TOP FL400. 06Z TOP 140-160. 08Z CNTRL BKN030 TOP

120. WDLY SCT -SHRA. 12Z N BKN030 TOP 120. WDLY SCT -SHRA.

OTLK..MVFR CIG SHRA WND.

S...OVC015 TOP FL200. VIS 3SM SCT -SHRA/TSRA. CB TOP FL400.

08Z SCT-BKN080 TOP 120. OTLK...VFR 16Z MVFR CIG.

.

IN KY

N-CNTRL...BKN015-025 LYRD FL250. WDLY SCT -SHRA/TSRA. CB TOP

FL400. 09Z BKN030 TOP 150. SCT -SHRA. OTLK...N MVFR CIG SHRA

CNTRL VFR 15Z MVFR CIG.

S IN/W KY...OVC020 TOP FL250. OCNL VIS 3SM SCT -SHRA/TSRA. CB TOP

FL400. 09Z BKN040 TOP 160. WDLY SCT -SHRA. OTLK...W PTN MVFR CIG

E PTN VFR.

E KY...BKN080 LYRD FL250. 09Z OVC040. WDLY SCT -SHRA/TSRA. CB TOP

FL400. OTLK...MVFR CIG SHRA E PTN TSRA 18Z VFR.

....



Significant Weather

WAUS45 KKCI 302045 SLCS WA 302045 AIRMET SIERRA UPDT 3 FOR IFR AND MTN OBSCN VALID UNTIL 010300 AIRMET MTN OBSCN...ID MT WY FROM 50WSW YXC TO 40SSW YQL TO 20ESE LWT TO 20NW BIL TO 30SE SHR TO 60S BOY TO 60ESE MLD TO 40SW TWF TO 50S GEG TO 50WSW YXC MTNS OBSC BY CLDS/PCPN. CONDS CONTG BYD 03Z THRU 09Z. OTLK VALID 0300-0900Z AREA 1...IFR WY UT BOUNDED BY 80S BIL-40NE MTU-30NE SLC-40NNW JAC-80S BIL CIG BLW 010/VIS BLW 3SM PCPN/BR. CONDS DVLPG 06-09Z. CONDS CONTG THRU 09Z. AREA 2...MTN OBSCN ID MT WY UT CO BOUNDED BY 60S YQL-20ESE SHR-70SE DDY-40S CYS-20ENE HBU-50N JNC- 20SE PIH-60SE MLP-60S YQL MTNS OBSC BY CLDS/PCPN. CONDS CONTG THRU 09Z.